Terminal Aerodrome Forecast
Issued by NWS

Home | Current Version | Previous Version | Text Only | Print | Product List | Glossary On
Versions: 1 2 3 4 5 6 7 8 9 10 11 12 13 14 15 16 17 18 19 20 21 22 23
000
FTUS44 KSJT 271000 AAB
TAFBBD
TAF AMD
KBBD 271024Z 2710/2806 08008KT P6SM SCT015 OVC024
      TEMPO 2710/2713 BKN015
     FM271800 17011KT P6SM SCT040=

USA.gov is the U.S. government's official web portal to all federal, state and local government web resources and services.